Data for 03/21/2008

Time Sea-Level Adjusted Pressure Absolute Pressure Temperature Relative Humidity Dew Point   
(mb) (inHg) (mb) (inHg) (C) (F) (%) (C) (F)
00:05 1018 30.06 847 25.01 -1.5 29.3 72 -5.9 21.3
00:10 1018 30.06 847 25.01 -1.5 29.4 72 -5.9 21.4
00:15 1018 30.06 847 25.01 -1.4 29.4 71 -6 21.2
00:20 1018 30.06 847 25.01 -1.3 29.6 71 -5.9 21.4
00:25 1018 30.06 847 25.01 -1.3 29.7 71 -5.9 21.5
00:30 1018 30.06 847 25.01 -1.3 29.7 72 -5.7 21.8
00:35 1018 30.06 847 25.01 -1.4 29.4 74 -5.5 22.1
00:40 1018 30.06 847 25.01 -1.6 29.1 75 -5.5 22.2
00:45 1018 30.06 847 25.01 -1.7 28.9 76 -5.4 22.3
00:50 1018 30.06 847 25.01 -1.8 28.8 77 -5.3 22.4
00:55 1018 30.06 847 25.01 -1.6 29.2 76 -5.2 22.6
01:00 1018 30.06 847 25.01 -1.4 29.4 76 -5.2 22.7
01:05 1018 30.06 848 25.04 -1.5 29.3 77 -5.1 22.8
01:10 1018 30.06 848 25.04 -1.5 29.3 75 -5.3 22.4
01:15 1018 30.06 848 25.04 -1.6 29.2 74 -5.5 22
01:20 1018 30.06 848 25.04 -1.7 29 74 -5.7 21.7
01:25 1019 30.09 848 25.04 -1.7 29 74 -5.7 21.7
01:30 1019 30.09 848 25.04 -1.6 29 74 -5.8 21.6
01:35 1019 30.09 848 25.04 -1.6 29.1 73 -5.9 21.4
01:40 1019 30.09 848 25.04 -1.4 29.5 72 -5.8 21.6
01:45 1019 30.09 848 25.04 -1.4 29.5 73 -5.6 21.9
01:50 1019 30.09 848 25.04 -1.5 29.3 75 -5.4 22.3
01:55 1019 30.09 848 25.04 -1.7 28.9 77 -5.3 22.5
02:00 1019 30.09 848 25.04 -1.9 28.6 80 -4.9 23.1
02:05 1019 30.09 848 25.04 -2 28.4 82 -4.7 23.5
02:10 1019 30.09 848 25.04 -2.2 28.1 85 -4.4 24.1
02:15 1019 30.09 848 25.04 -2.2 28.1 87 -4.1 24.5
02:20 1019 30.09 848 25.04 -2.1 28.2 87 -3.9 24.9
02:25 1019 30.09 848 25.04 -2 28.4 88 -3.7 25.3
02:30 1019 30.09 848 25.04 -2 28.4 89 -3.6 25.5
02:35 1019 30.09 848 25.04 -2.3 27.8 91 -3.6 25.5
02:40 1019 30.09 848 25.04 -2.6 27.3 93 -3.6 25.5
02:45 1019 30.09 848 25.04 -2.7 27.2 94 -3.5 25.7
02:50 1019 30.09 848 25.04 -2.7 27.1 95 -3.4 25.9
02:55 1019 30.09 848 25.04 -2.7 27.1 96 -3.3 26
03:00 1019 30.09 848 25.04 -2.8 27 96 -3.3 26
03:05 1019 30.09 848 25.04 -2.8 27 96 -3.3 26.1
03:10 1019 30.09 848 25.04 -2.8 27 97 -3.2 26.2
03:15 1019 30.09 848 25.04 -2.7 27.1 97 -3.1 26.4
03:20 1019 30.09 848 25.04 -2.6 27.3 98 -3 26.7
03:25 1019 30.09 848 25.04 -2.5 27.4 98 -2.8 26.9
03:30 1019 30.09 848 25.04 -2.5 27.5 98 -2.8 27
03:35 1019 30.09 848 25.04 -2.4 27.7 98 -2.7 27.2
03:40 1019 30.09 848 25.04 -2.3 27.8 98 -2.6 27.3
03:45 1019 30.09 848 25.04 -2.4 27.7 98 -2.6 27.3
03:50 1019 30.09 848 25.04 -2.4 27.7 98 -2.6 27.3
03:55 1019 30.09 848 25.04 -2.4 27.7 99 -2.6 27.3
04:00 1019 30.09 848 25.04 -2.4 27.7 99 -2.6 27.4
04:05 1019 30.09 848 25.04 -2.6 27.3 99 -2.8 27
04:10 1019 30.09 849 25.07 -2.8 27 99 -2.9 26.8
04:15 1019 30.09 849 25.07 -2.7 27.1 99 -2.8 27
04:20 1019 30.09 849 25.07 -2.4 27.6 99 -2.6 27.4
04:25 1019 30.09 849 25.07 -2.4 27.7 99 -2.5 27.4
04:30 1019 30.09 849 25.07 -2.4 27.6 99 -2.6 27.3
04:35 1019 30.09 849 25.07 -2.6 27.3 98 -2.9 26.8
04:40 1019 30.09 849 25.07 -3.1 26.5 98 -3.3 26
04:45 1019 30.09 849 25.07 -3.1 26.4 98 -3.4 25.9
04:50 1019 30.09 849 25.07 -3.3 26.1 97 -3.6 25.4
04:55 1019 30.09 849 25.07 -3.6 25.5 164 3.2 37.8
05:00 1019 30.09 849 25.07 -3.8 25.2 164 3 37.4
05:05 1019 30.09 849 25.07 -3.6 25.5 164 3.2 37.7
05:10 1019 30.09 849 25.07 -3.6 25.5 164 3.2 37.8
05:15 1019 30.09 849 25.07 -3.6 25.5 164 3.2 37.8
05:20 1019 30.09 849 25.07 -3.6 25.6 164 3.2 37.8
05:25 1020 30.12 849 25.07 -3.5 25.7 164 3.3 38
05:30 1020 30.12 849 25.07 -3.6 25.5 164 3.2 37.8
05:35 1020 30.12 849 25.07 -3.6 25.6 164 3.3 37.9
05:40 1020 30.12 849 25.07 -3.8 25.1 164 3 37.4
05:45 1020 30.12 849 25.07 -3.9 25 164 2.9 37.3
05:50 1020 30.12 849 25.07 -4.1 24.7 164 2.8 37
05:55 1020 30.12 849 25.07 -4.2 24.5 164 2.6 36.8
06:00 1020 30.12 849 25.07 -4.4 24 164 2.4 36.3
06:05 1020 30.12 849 25.07 -4.9 23.1 165 1.8 35.3
06:10 1020 30.12 849 25.07 -5.3 22.5 165 1.5 34.7
06:15 1020 30.12 849 25.07 -5.3 22.4 165 1.4 34.6
06:20 1020 30.12 849 25.07 -5.3 22.4 165 1.4 34.6
06:25 1020 30.12 849 25.07 -5.2 22.6 165 1.5 34.8
06:30 1020 30.12 849 25.07 -5.1 22.7 164 1.6 34.9
06:35 1020 30.12 849 25.07 -5.1 22.8 165 1.7 35
06:40 1020 30.12 849 25.07 -5.3 22.5 165 1.5 34.6
06:45 1020 30.12 849 25.07 -5.3 22.4 165 1.4 34.6
06:50 1020 30.12 849 25.07 -5.5 22.1 165 1.2 34.2
06:55 1020 30.12 849 25.07 -5.8 21.7 165 1 33.8
07:00 1020 30.12 849 25.07 -5.6 22 165 1.2 34.1
07:05 1020 30.12 849 25.07 -5.2 22.6 165 1.5 34.7
07:10 1020 30.12 849 25.07 -5 22.9 165 1.7 35.1
07:15 1020 30.12 849 25.07 -4.9 23.2 165 1.9 35.4
07:20 1020 30.12 849 25.07 -4.9 23.3 165 1.9 35.5
07:25 1020 30.12 849 25.07 -4.8 23.3 160 1.6 34.8
07:30 1020 30.12 849 25.07 -4.7 23.6 146 0.4 32.7
07:35 1020 30.12 849 25.07 -4.3 24.3 128 -0.9 30.3
07:40 1020 30.12 849 25.07 -4 24.8 115 -2.1 28.1
07:45 1020 30.12 849 25.07 -4 24.8 100 -4 24.8
07:50 1020 30.12 849 25.07 -3.9 24.9 98 -4.2 24.4
07:55 1020 30.12 849 25.07 -3.8 25.1 94 -4.7 23.6
08:00 1020 30.12 849 25.07 -3.7 25.3 92 -4.9 23.2
08:05 1020 30.12 849 25.07 -3.9 25 91 -5.2 22.6
08:10 1020 30.12 849 25.07 -4 24.9 90 -5.3 22.5
08:15 1020 30.12 849 25.07 -4.1 24.7 91 -5.3 22.4
08:20 1020 30.12 849 25.07 -4 24.9 91 -5.2 22.6
08:25 1020 30.12 849 25.07 -3.7 25.3 91 -5 23
08:30 1020 30.12 850 25.1 -3.4 25.8 91 -4.7 23.5
08:35 1020 30.12 850 25.1 -3.3 26.1 90 -4.7 23.6
08:40 1020 30.12 850 25.1 -3.3 26 90 -4.7 23.6
08:45 1020 30.12 850 25.1 -3.2 26.2 90 -4.6 23.8
08:50 1020 30.12 850 25.1 -3 26.6 90 -4.4 24.1
08:55 1020 30.12 849 25.07 -2.7 27.2 90 -4.1 24.6
09:00 1020 30.12 849 25.07 -2.4 27.6 89 -4 24.8
09:05 1020 30.12 849 25.07 -2.2 28 89 -3.9 25
09:10 1020 30.12 849 25.07 -1.8 28.7 88 -3.5 25.6
09:15 1020 30.12 849 25.07 -1.3 29.7 87 -3.2 26.3
09:20 1020 30.12 849 25.07 -1 30.2 85 -3.1 26.3
09:25 1020 30.12 849 25.07 -0.9 30.4 84 -3.2 26.2
09:30 1020 30.12 849 25.07 -0.7 30.7 83 -3.3 26.1
09:35 1020 30.12 849 25.07 -0.8 30.6 83 -3.3 26
09:40 1020 30.12 850 25.1 -0.2 31.7 82 -2.9 26.7
09:45 1020 30.12 850 25.1 0.4 32.8 80 -2.7 27.1
09:50 1020 30.12 850 25.1 1.1 34 76 -2.6 27.3
09:55 1020 30.12 850 25.1 1.8 35.3 72 -2.7 27.1
10:00 1020 30.12 850 25.1 1.8 35.2 70 -3.1 26.5
10:05 1020 30.12 850 25.1 0.9 33.6 72 -3.7 25.4
10:10 1020 30.12 850 25.1 1 33.8 71 -3.6 25.5
10:15 1020 30.12 850 25.1 1 33.8 71 -3.7 25.4
10:20 1021 30.15 850 25.1 0.9 33.6 70 -3.9 25
10:25 1021 30.15 850 25.1 1 33.8 69 -4 24.8
10:30 1021 30.15 850 25.1 1.7 35 66 -3.9 24.9
10:35 1021 30.15 850 25.1 2.5 36.5 64 -3.7 25.4
10:40 1021 30.15 850 25.1 2.6 36.6 62 -4 24.9
10:45 1021 30.15 850 25.1 2.1 35.8 60 -4.8 23.4
10:50 1021 30.15 850 25.1 2.8 37 57 -5 23
10:55 1021 30.15 850 25.1 3.4 38.1 50 -6.1 21
11:00 1021 30.15 850 25.1 3.2 37.7 49 -6.4 20.4
11:05 1021 30.15 850 25.1 2.9 37.2 50 -6.6 20.2
11:10 1021 30.15 850 25.1 2.5 36.5 52 -6.3 20.6
11:15 1021 30.15 850 25.1 2.7 36.8 52 -6.3 20.6
11:20 1021 30.15 850 25.1 2.7 36.9 55 -5.4 22.3
11:25 1021 30.15 850 25.1 3.4 38.1 55 -4.7 23.6
11:30 1021 30.15 850 25.1 4.1 39.4 51 -5.1 22.8
11:35 1021 30.15 850 25.1 3.8 38.9 53 -5 23.1
11:40 1021 30.15 850 25.1 3.6 38.5 53 -5 23.1
11:45 1021 30.15 850 25.1 4.2 39.5 54 -4.3 24.2
11:50 1021 30.15 850 25.1 4.7 40.4 50 -4.8 23.4
11:55 1021 30.15 850 25.1 3.7 38.7 51 -5.5 22.1
12:00 1021 30.15 850 25.1 3.7 38.6 51 -5.5 22.1
12:05 1021 30.15 850 25.1 3.6 38.5 51 -5.6 21.9
12:10 1021 30.15 850 25.1 3.7 38.7 51 -5.5 22.2
12:15 1021 30.15 850 25.1 3.8 38.9 50 -5.6 22
12:20 1021 30.15 850 25.1 3.8 38.9 50 -5.6 21.8
12:25 1021 30.15 850 25.1 3.4 38.2 50 -6.1 21.1
12:30 1021 30.15 850 25.1 2.4 36.4 54 -6 21.1
12:35 1021 30.15 850 25.1 2.7 36.9 50 -6.6 20
12:40 1021 30.15 850 25.1 2.6 36.7 51 -6.6 20.2
12:45 1021 30.15 850 25.1 2.1 35.7 54 -6.4 20.5
12:50 1021 30.15 850 25.1 1.6 34.8 59 -5.6 22
12:55 1021 30.15 850 25.1 1 33.8 63 -5.3 22.5
13:00 1021 30.15 850 25.1 1 33.9 64 -5 22.9
13:05 1021 30.15 850 25.1 1.8 35.2 60 -5.2 22.6
13:10 1021 30.15 850 25.1 2.6 36.8 56 -5.3 22.5
13:15 1021 30.15 850 25.1 3.3 38 54 -5.2 22.7
13:20 1021 30.15 850 25.1 3.7 38.6 53 -5 23
13:25 1021 30.15 850 25.1 3.6 38.4 52 -5.3 22.4
13:30 1021 30.15 850 25.1 3.2 37.7 52 -5.8 21.6
13:35 1021 30.15 850 25.1 3.3 38 51 -5.8 21.6
13:40 1021 30.15 850 25.1 2.8 37 55 -5.5 22.2
13:45 1021 30.15 850 25.1 2.4 36.3 55 -5.8 21.5
13:50 1021 30.15 850 25.1 2.7 36.8 53 -5.8 21.5
13:55 1021 30.15 850 25.1 2.9 37.3 53 -5.8 21.6
14:00 1021 30.15 850 25.1 1.8 35.2 58 -5.7 21.8
14:05 1021 30.15 850 25.1 1.5 34.7 58 -5.9 21.3
14:10 1021 30.15 850 25.1 1.2 34.1 60 -5.7 21.7
14:15 1021 30.15 850 25.1 0.9 33.7 64 -5.1 22.8
14:20 1021 30.15 850 25.1 0.8 33.5 66 -4.8 23.3
14:25 1021 30.15 850 25.1 0.3 32.5 74 -3.9 25
14:30 1021 30.15 850 25.1 -0.1 31.7 78 -3.5 25.7
14:35 1021 30.15 850 25.1 -0.6 30.9 79 -3.8 25.2
14:40 1021 30.15 850 25.1 -0.8 30.6 82 -3.4 25.9
14:45 1021 30.15 850 25.1 -0.7 30.8 83 -3.3 26.1
14:50 1021 30.15 850 25.1 -0.6 30.9 81 -3.5 25.7
14:55 1021 30.15 850 25.1 -0.4 31.2 82 -3.2 26.2
15:00 1021 30.15 850 25.1 -0.4 31.2 81 -3.3 26.1
15:05 1022 30.18 851 25.13 -0.4 31.2 81 -3.3 26
15:10 1022 30.18 851 25.13 0 32.1 77 -3.5 25.7
15:15 1022 30.18 851 25.13 -0.3 31.4 80 -3.4 25.9
15:20 1022 30.18 852 25.16 -0.8 30.6 82 -3.5 25.7
15:25 1023 30.21 852 25.16 -0.9 30.5 83 -3.4 25.9
15:30 1023 30.21 852 25.16 -1.3 29.7 85 -3.4 25.8
15:35 1023 30.21 852 25.16 -1.7 29 87 -3.6 25.6
15:40 1023 30.21 852 25.16 -1.7 29 87 -3.5 25.6
15:45 1023 30.21 852 25.16 -1.6 29.1 87 -3.6 25.6
15:50 1023 30.21 852 25.16 -1.7 28.9 87 -3.6 25.4
15:55 1023 30.21 853 25.19 -1.6 29.1 86 -3.6 25.4
16:00 1024 30.24 853 25.19 -1.8 28.7 88 -3.5 25.7
16:05 1024 30.24 853 25.19 -2.1 28.3 90 -3.4 25.8
16:10 1024 30.24 853 25.19 -2.3 27.8 93 -3.4 25.9
16:15 1024 30.24 853 25.19 -2.3 27.8 94 -3.2 26.2
16:20 1024 30.24 853 25.19 -2.3 27.8 95 -3.1 26.4
16:25 1024 30.24 853 25.19 -2.4 27.8 95 -3.1 26.4
16:30 1024 30.24 853 25.19 -2.4 27.7 95 -3 26.6
16:35 1024 30.24 853 25.19 -2.3 27.8 95 -3 26.6
16:40 1024 30.24 853 25.19 -2.2 28.1 95 -2.8 27
16:45 1024 30.24 853 25.19 -2 28.4 95 -2.6 27.3
16:50 1024 30.24 853 25.19 -1.9 28.7 96 -2.5 27.6
16:55 1024 30.24 853 25.19 -2.2 28.1 95 -2.8 26.9
17:00 1024 30.24 854 25.22 -2.2 28 96 -2.8 27
17:05 1024 30.24 853 25.19 -2.1 28.3 96 -2.6 27.2
17:10 1024 30.24 854 25.22 -1.9 28.6 96 -2.5 27.6
17:15 1024 30.24 854 25.22 -2 28.5 96 -2.5 27.5
17:20 1024 30.24 854 25.22 -1.8 28.8 96 -2.4 27.7
17:25 1024 30.24 854 25.22 -1.9 28.6 95 -2.6 27.3
17:30 1024 30.24 854 25.22 -2.2 28.1 95 -2.8 26.9
17:35 1025 30.27 854 25.22 -2.2 28 95 -2.9 26.8
17:40 1025 30.27 854 25.22 -2 28.5 95 -2.7 27.2
17:45 1025 30.27 854 25.22 -1.7 28.9 94 -2.5 27.5
17:50 1025 30.27 854 25.22 -1.7 28.9 94 -2.6 27.4
17:55 1025 30.27 854 25.22 -1.7 29 94 -2.5 27.4
18:00 1025 30.27 854 25.22 -1.7 29 94 -2.6 27.3
18:05 1025 30.27 854 25.22 -1.7 29 94 -2.6 27.4
18:10 1025 30.27 854 25.22 -1.6 29.1 94 -2.5 27.5
18:15 1025 30.27 854 25.22 -1.5 29.3 92 -2.6 27.4
18:20 1025 30.27 854 25.22 -1.7 28.9 93 -2.7 27.2
18:25 1025 30.27 854 25.22 -1.8 28.8 93 -2.7 27.1
18:30 1025 30.27 854 25.22 -1.6 29 93 -2.6 27.3
18:35 1025 30.27 854 25.22 -1.5 29.2 92 -2.7 27.2
18:40 1025 30.27 855 25.25 -1.7 29 93 -2.7 27.1
18:45 1025 30.27 855 25.25 -1.6 29.1 93 -2.7 27.2
18:50 1025 30.27 855 25.25 -1.5 29.2 93 -2.6 27.3
18:55 1026 30.3 855 25.25 -1.5 29.2 93 -2.6 27.4
19:00 1026 30.3 855 25.25 -1.6 29.1 93 -2.6 27.3
19:05 1026 30.3 855 25.25 -1.8 28.9 93 -2.7 27.1
19:10 1026 30.3 855 25.25 -1.7 28.9 93 -2.7 27.1
19:15 1026 30.3 855 25.25 -1.8 28.8 93 -2.8 27
19:20 1026 30.3 855 25.25 -1.9 28.6 93 -3 26.7
19:25 1026 30.3 855 25.25 -1.9 28.5 92 -3 26.5
19:30 1026 30.3 855 25.25 -2.1 28.2 92 -3.2 26.3
19:35 1026 30.3 855 25.25 -2.2 28 92 -3.3 26
19:40 1026 30.3 855 25.25 -2.3 27.9 92 -3.4 25.9
19:45 1026 30.3 855 25.25 -2.4 27.8 92 -3.5 25.7
19:50 1026 30.3 855 25.25 -2.4 27.7 92 -3.5 25.7
19:55 1026 30.3 855 25.25 -2.6 27.4 93 -3.5 25.6
20:00 1026 30.3 855 25.25 -2.7 27.1 94 -3.6 25.6
20:05 1026 30.3 856 25.28 -2.9 26.9 95 -3.6 25.5
20:10 1026 30.3 856 25.28 -2.9 26.7 95 -3.7 25.4
20:15 1026 30.3 856 25.28 -3 26.7 95 -3.7 25.3
20:20 1027 30.33 856 25.28 -3 26.6 94 -3.9 25
20:25 1027 30.33 856 25.28 -3 26.7 92 -4 24.7
20:30 1027 30.33 856 25.28 -2.9 26.7 91 -4.2 24.4
20:35 1027 30.33 856 25.28 -2.9 26.7 90 -4.4 24.1
20:40 1027 30.33 856 25.28 -3 26.5 89 -4.7 23.6
20:45 1027 30.33 856 25.28 -3.1 26.3 88 -4.8 23.4
20:50 1027 30.33 856 25.28 -3.3 26.1 89 -4.9 23.3
20:55 1027 30.33 856 25.28 -3.5 25.6 90 -5 23
21:00 1027 30.33 856 25.28 -3.9 25 90 -5.4 22.3
21:05 1027 30.33 856 25.28 -4 24.8 89 -5.6 21.9
21:10 1027 30.33 856 25.28 -3.6 25.5 86 -5.6 22
21:15 1027 30.33 856 25.28 -3.3 26.1 84 -5.6 21.9
21:20 1027 30.33 856 25.28 -3 26.6 82 -5.7 21.7
21:25 1027 30.33 856 25.28 -3.1 26.5 80 -6 21.2
21:30 1027 30.33 857 25.31 -3.1 26.4 80 -6.2 20.9
21:35 1027 30.33 857 25.31 -3.3 26.2 78 -6.5 20.3
21:40 1027 30.33 857 25.31 -3.2 26.2 78 -6.6 20.1
21:45 1027 30.33 857 25.31 -3.2 26.3 77 -6.7 19.9
21:50 1028 30.36 857 25.31 -3.2 26.3 77 -6.7 19.9
21:55 1028 30.36 857 25.31 -3.1 26.4 75 -6.9 19.7
22:00 1028 30.36 857 25.31 -3 26.6 75 -6.8 19.7
22:05 1028 30.36 857 25.31 -3.1 26.5 75 -7 19.5
22:10 1028 30.36 857 25.31 -3.1 26.4 74 -7.1 19.3
22:15 1028 30.36 857 25.31 -3.1 26.4 74 -7.2 19.1
22:20 1028 30.36 857 25.31 -3.1 26.4 73 -7.2 19
22:25 1028 30.36 857 25.31 -3.1 26.5 72 -7.4 18.7
22:30 1028 30.36 857 25.31 -3.1 26.5 72 -7.4 18.6
22:35 1028 30.36 857 25.31 -3.1 26.3 73 -7.4 18.8
22:40 1028 30.36 857 25.31 -3.2 26.3 73 -7.4 18.7
22:45 1028 30.36 857 25.31 -3.3 26.1 72 -7.6 18.3
22:50 1028 30.36 857 25.31 -3.5 25.8 72 -7.8 18
22:55 1028 30.36 857 25.31 -3.4 25.8 71 -7.9 17.8
23:00 1028 30.36 858 25.34 -3.2 26.2 69 -8.1 17.3
23:05 1028 30.36 858 25.34 -3.2 26.3 68 -8.2 17.2
23:10 1028 30.36 858 25.34 -3.2 26.3 68 -8.3 17
23:15 1028 30.36 858 25.34 -3.3 26.1 67 -8.5 16.7
23:20 1028 30.36 858 25.34 -3.1 26.4 67 -8.4 16.9
23:25 1028 30.36 858 25.34 -3.2 26.3 67 -8.5 16.8
23:30 1029 30.39 858 25.34 -3.5 25.7 69 -8.5 16.8
23:35 1029 30.39 858 25.34 -3.7 25.3 70 -8.4 16.9
23:40 1029 30.39 858 25.34 -4.1 24.7 72 -8.4 16.8
23:45 1029 30.39 858 25.34 -4.7 23.5 74 -8.7 16.3
23:50 1029 30.39 858 25.34 -4.7 23.5 74 -8.7 16.3
23:55 1029 30.39 858 25.34 -4.7 23.5 73 -8.8 16.1
24:00 1029 30.39 858 25.34 -4.8 23.3 74 -8.8 16.1